Liberty — WDG2187 — position and weather

sailwx.info

Track history (hours):
 
Tides and Currents Weather Stations Pressure Air Temp Water Temp Dewpoint Dewpoint Depression Visibility Wind Speed Wind Dir Waves Ship Positions

Liberty

Owner: Boston Towing & Transportation, Boston, MA. More information available from US FCC via Universal Licensing System and Coast Guard Vessel Documentation Center.

Last reported at 2017-Nov-20 00:29 UTC. Time now 2017-Nov-21 23:14 UTC.
Position N 42°23' W 071°03'.

Length 28 m; draft 4.1 m.

Type: Tug. MMSI: 367513040.

Date/timePositionNaut miles runAvg speedWind from/ knotsBaromVisibWave heightAir tempDewpointWater temp
2017-Nov-20 00:29N 42°23' W 071°03'0 0.0
2017-Nov-19 23:59N 42°23' W 071°03'0 0.0
2017-Nov-19 23:28N 42°23' W 071°03'0 0.0
2017-Nov-19 22:59N 42°23' W 071°03'0 0.0
2017-Nov-19 22:29N 42°23' W 071°03'0 0.0
2017-Nov-19 21:59N 42°23' W 071°03'0 0.0
2017-Nov-19 21:27N 42°23' W 071°03'0 0.0
2017-Nov-19 20:58N 42°23' W 071°03'0 0.0
2017-Nov-19 19:55N 42°23' W 071°03'0 0.0
2017-Nov-19 19:30N 42°23' W 071°03'0 0.0
2017-Nov-19 19:00N 42°23' W 071°03'0 0.0
2017-Nov-19 18:22N 42°23' W 071°03'0 0.0
2017-Nov-19 16:58N 42°23' W 071°03'2 5.4
2017-Nov-19 16:30N 42°21' W 071°01'1 1.8
2017-Nov-19 15:58N 42°20' W 070°60'0 1.0
2017-Nov-19 15:30N 42°20' W 071°00'3 5.8
2017-Nov-19 15:00N 42°23' W 071°03'0 0.0
2017-Nov-19 14:30N 42°23' W 071°03'0 0.0
2017-Nov-19 14:00N 42°23' W 071°03'0 0.0
2017-Nov-19 13:30N 42°23' W 071°03'0 0.0
2017-Nov-19 13:00N 42°23' W 071°03'1 2.5
2017-Nov-19 12:30N 42°23' W 071°01'0 0.4
2017-Nov-19 11:56N 42°24' W 071°01'1 3.1
2017-Nov-19 11:30N 42°23' W 071°03'2 3.6
2017-Nov-19 11:00N 42°21' W 071°02'1 2.6
2017-Nov-19 10:30N 42°23' W 071°03'0 0.6
2017-Nov-19 10:00N 42°23' W 071°03'0 0.0
2017-Nov-19 09:30N 42°23' W 071°03'0 0.0
2017-Nov-19 08:59N 42°23' W 071°03'0 0.0
2017-Nov-19 08:30N 42°23' W 071°03'0 0.0
2017-Nov-19 07:59N 42°23' W 071°03'0 0.0
2017-Nov-19 07:27N 42°23' W 071°03'0 0.0
2017-Nov-19 06:58N 42°23' W 071°03'0 0.0
2017-Nov-19 06:27N 42°23' W 071°03'0 0.0
2017-Nov-19 06:00N 42°23' W 071°03'0 0.0
2017-Nov-19 05:28N 42°23' W 071°03'0 0.0
2017-Nov-19 04:31N 42°23' W 071°03'0 0.2
2017-Nov-19 04:29N 42°23' W 071°03'0 0.0
2017-Nov-19 03:56N 42°23' W 071°03'0 0.0
2017-Nov-19 03:30N 42°23' W 071°03'3 5.3
2017-Nov-19 03:00N 42°21' W 071°01'0 0.6
2017-Nov-19 02:30N 42°21' W 071°01'2 1.7
2017-Nov-19 01:02N 42°23' W 071°03'0 0.0
2017-Nov-19 00:54N 42°23' W 071°03'0 0.0
2017-Nov-19 00:27N 42°23' W 071°03'0 0.0
2017-Nov-18 23:52N 42°23' W 071°03'0 0.0
2017-Nov-18 23:30N 42°23' W 071°03'0 0.0
2017-Nov-18 21:25N 42°23' W 071°03'0 0.0
2017-Nov-18 21:00N 42°23' W 071°03'0 0.0
2017-Nov-18 20:29N 42°23' W 071°03'0 0.0
2017-Nov-18 20:00N 42°23' W 071°03'0 0.0
2017-Nov-18 19:28N 42°23' W 071°03'0 0.0
2017-Nov-18 19:00N 42°23' W 071°03'0 0.0
2017-Nov-18 18:30N 42°23' W 071°03'0 0.0
2017-Nov-18 18:00N 42°23' W 071°03'0 0.0
2017-Nov-18 17:30N 42°23' W 071°03'0 0.0
2017-Nov-18 16:52N 42°23' W 071°03'0 0.0
2017-Nov-18 16:30N 42°23' W 071°03'0 0.0
2017-Nov-18 15:59N 42°23' W 071°03'2 5.1
2017-Nov-18 15:30N 42°21' W 071°01'0 0.6
2017-Nov-18 15:00N 42°21' W 071°01'2 4.0
2017-Nov-18 14:30N 42°20' W 070°58'2 4.9
2017-Nov-18 14:00N 42°21' W 071°01'2 4.8
2017-Nov-18 13:30N 42°23' W 071°03'1 1.1
2017-Nov-18 13:00N 42°23' W 071°02'0 0.7
2017-Nov-18 12:30N 42°23' W 071°03'2 3.8
2017-Nov-18 12:00N 42°21' W 071°02'1 2.7
2017-Nov-18 11:30N 42°22' W 071°03'1 1.0
2017-Nov-18 11:00N 42°23' W 071°03'0 0.0
2017-Nov-18 10:30N 42°23' W 071°03'0 0.0
2017-Nov-18 10:00N 42°23' W 071°03'0 0.0
2017-Nov-18 09:30N 42°23' W 071°03'0 0.0
2017-Nov-18 09:00N 42°23' W 071°03'0 0.0
2017-Nov-18 08:30N 42°23' W 071°03'0 0.0
2017-Nov-18 08:00N 42°23' W 071°03'0 0.0
2017-Nov-18 07:30N 42°23' W 071°03'0 0.0
2017-Nov-18 07:00N 42°23' W 071°03'0 0.0
2017-Nov-18 06:30N 42°23' W 071°03'0 0.0
2017-Nov-18 06:00N 42°23' W 071°03'0 0.0
2017-Nov-18 05:30N 42°23' W 071°03'0 0.0
2017-Nov-18 05:00N 42°23' W 071°03'0 0.0
2017-Nov-18 04:30N 42°23' W 071°03'0 0.0
2017-Nov-18 04:00N 42°23' W 071°03'0 0.0
2017-Nov-18 03:30N 42°23' W 071°03'0 0.0
2017-Nov-18 03:00N 42°23' W 071°03'0 0.0
2017-Nov-18 02:30N 42°23' W 071°03'0 0.0
2017-Nov-18 02:00N 42°23' W 071°03'0 0.0
2017-Nov-18 01:30N 42°23' W 071°03'0 0.0
2017-Nov-18 01:00N 42°23' W 071°03'0 0.0
2017-Nov-18 00:30N 42°23' W 071°03'0 0.0
2017-Nov-18 00:00N 42°23' W 071°03'0 0.0
2017-Nov-17 23:30N 42°23' W 071°03'0 0.0
2017-Nov-17 23:00N 42°23' W 071°03'0 0.0
2017-Nov-17 22:30N 42°23' W 071°03'0 0.0
2017-Nov-17 22:00N 42°23' W 071°03'0 0.0
2017-Nov-17 21:30N 42°23' W 071°03'2 3.4
2017-Nov-17 21:00N 42°24' W 071°01'1 1.8
2017-Nov-17 20:30N 42°23' W 071°01'2 3.2
2017-Nov-17 20:01N 42°22' W 071°03'2 2.8
2017-Nov-17 19:29N 42°23' W 071°02'1 0.9
2017-Nov-17 18:45N 42°24' W 071°01'0 1.1
2017-Nov-17 18:28N 42°24' W 071°01'0 0.1
2017-Nov-17 18:00N 42°24' W 071°01'2 3.4
2017-Nov-17 17:30N 42°23' W 071°03'0 0.0
2017-Nov-17 10:36N 42°23' W 071°03'0 0.1
2017-Nov-17 10:30N 42°23' W 071°03'0 0.0
2017-Nov-17 10:00N 42°23' W 071°03'0 0.0
2017-Nov-17 09:24N 42°23' W 071°03'0 0.0
2017-Nov-17 08:52N 42°23' W 071°03'0 0.0
2017-Nov-17 08:29N 42°23' W 071°03'0 0.0
2017-Nov-17 08:00N 42°23' W 071°03'0 0.0
2017-Nov-17 07:17N 42°23' W 071°03'0 0.0
2017-Nov-17 06:52N 42°23' W 071°03'0 0.0
2017-Nov-17 06:22N 42°23' W 071°03'0 0.0
2017-Nov-17 05:46N 42°23' W 071°03'0 0.0
2017-Nov-17 05:29N 42°23' W 071°03'0 0.0
2017-Nov-17 04:56N 42°23' W 071°03'0 0.0
2017-Nov-17 04:12N 42°23' W 071°03'0 0.0
2017-Nov-17 03:59N 42°23' W 071°03'0 0.0
2017-Nov-17 03:27N 42°23' W 071°03'0 0.0
2017-Nov-17 02:59N 42°23' W 071°03'0 0.0
2017-Nov-17 02:26N 42°23' W 071°03'0 0.0
2017-Nov-17 02:00N 42°23' W 071°03'0 0.0
2017-Nov-17 01:20N 42°23' W 071°03'0 0.0
2017-Nov-17 00:59N 42°23' W 071°03'0 0.0
2017-Nov-17 00:27N 42°23' W 071°03'0 0.0
2017-Nov-17 00:00N 42°23' W 071°03'0 0.0
2017-Nov-16 23:28N 42°23' W 071°03'0 0.0
2017-Nov-16 21:48N 42°23' W 071°03'0 0.0
2017-Nov-16 21:28N 42°23' W 071°03'0 0.0
2017-Nov-16 20:55N 42°23' W 071°03'0 0.0
2017-Nov-16 20:30N 42°23' W 071°03'0 0.0
2017-Nov-16 19:57N 42°23' W 071°03'0 0.0
2017-Nov-16 19:27N 42°23' W 071°03'0 0.0
2017-Nov-16 18:54N 42°23' W 071°03'0 0.0
2017-Nov-16 18:11N 42°23' W 071°03'0 0.0
2017-Nov-16 17:54N 42°23' W 071°03'0 0.0
2017-Nov-16 17:30N 42°23' W 071°03'0 0.0
2017-Nov-16 16:55N 42°23' W 071°03'0 0.0
2017-Nov-16 16:29N 42°23' W 071°03'0 0.0
2017-Nov-16 16:00N 42°23' W 071°03'0 0.0
2017-Nov-16 15:24N 42°23' W 071°03'0 0.0
2017-Nov-16 14:54N 42°23' W 071°03'0 0.0
2017-Nov-16 14:11N 42°23' W 071°03'0 0.2
2017-Nov-16 14:01N 42°23' W 071°03'0 0.0
2017-Nov-16 13:30N 42°23' W 071°03'0 0.0
2017-Nov-16 13:00N 42°23' W 071°03'0 0.0
2017-Nov-16 12:30N 42°23' W 071°03'0 0.0
2017-Nov-16 12:00N 42°23' W 071°03'0 0.0
2017-Nov-16 11:30N 42°23' W 071°03'0 0.0
2017-Nov-16 11:00N 42°23' W 071°03'0 0.0
2017-Nov-16 10:30N 42°23' W 071°03'0 0.0
2017-Nov-16 10:00N 42°23' W 071°03'0 0.0
2017-Nov-16 09:30N 42°23' W 071°03'0 0.0
2017-Nov-16 09:01N 42°23' W 071°03'0 0.5
2017-Nov-16 08:30N 42°23' W 071°03'1 1.8
2017-Nov-16 08:00N 42°23' W 071°04'0 0.0
2017-Nov-16 07:30N 42°23' W 071°04'0 0.0
2017-Nov-16 07:00N 42°23' W 071°04'1 1.9
2017-Nov-16 06:30N 42°23' W 071°03'0 0.0
2017-Nov-16 06:00N 42°23' W 071°03'0 0.0
2017-Nov-16 05:30N 42°23' W 071°03'0 0.0
2017-Nov-16 05:00N 42°23' W 071°03'0 0.7
2017-Nov-16 04:30N 42°23' W 071°02'1 1.5
2017-Nov-16 04:00N 42°23' W 071°01'1 1.7
2017-Nov-16 03:28N 42°23' W 071°03'0 0.0
2017-Nov-16 02:59N 42°23' W 071°03'0 0.0
2017-Nov-16 01:59N 42°23' W 071°03'0 0.0
2017-Nov-16 01:30N 42°23' W 071°03'0 0.0
2017-Nov-16 00:58N 42°23' W 071°03'0 0.0
2017-Nov-16 00:30N 42°23' W 071°03'0 0.0
2017-Nov-16 00:00N 42°23' W 071°03'0 0.0
2017-Nov-15 23:30N 42°23' W 071°03'0 0.0
2017-Nov-15 23:00N 42°23' W 071°03'0 0.0
2017-Nov-15 22:23N 42°23' W 071°03'0 0.0
2017-Nov-15 21:58N 42°23' W 071°03'0 0.0
2017-Nov-15 21:29N 42°23' W 071°03'0 0.0
2017-Nov-15 21:00N 42°23' W 071°03'0 0.0
2017-Nov-15 20:30N 42°23' W 071°03'1 2.4
2017-Nov-15 19:57N 42°24' W 071°01'0 0.7
2017-Nov-15 19:30N 42°23' W 071°01'2 3.2
2017-Nov-15 19:00N 42°22' W 071°03'1 1.1
2017-Nov-15 18:26N 42°23' W 071°03'0 0.0
2017-Nov-15 18:00N 42°23' W 071°03'0 0.0
2017-Nov-15 17:28N 42°23' W 071°03'0 0.0
2017-Nov-15 16:59N 42°23' W 071°03'0 0.0
2017-Nov-15 16:25N 42°23' W 071°03'0 0.0
2017-Nov-15 15:55N 42°23' W 071°03'1 1.4
2017-Nov-15 15:26N 42°23' W 071°02'0 0.2
2017-Nov-15 14:52N 42°23' W 071°02'1 1.6
2017-Nov-15 14:26N 42°23' W 071°02'2 3.5
2017-Nov-15 14:00N 42°22' W 071°03'2 3.2
2017-Nov-15 13:30N 42°23' W 071°02'1 2.1
2017-Nov-15 13:00N 42°24' W 071°01'1 1.5
2017-Nov-15 12:28N 42°23' W 071°01'0 0.7
2017-Nov-15 12:00N 42°23' W 071°02'1 1.5
2017-Nov-15 11:31N 42°24' W 071°01'1 2.6
2017-Nov-15 11:00N 42°23' W 071°03'0 0.0
2017-Nov-15 10:30N 42°23' W 071°03'0 0.0
2017-Nov-15 09:50N 42°23' W 071°03'0 0.0
2017-Nov-15 09:24N 42°23' W 071°03'0 0.0
2017-Nov-15 08:17N 42°23' W 071°03'0 0.0
2017-Nov-15 07:20N 42°23' W 071°03'0 0.0
2017-Nov-15 06:56N 42°23' W 071°03'0 0.0
2017-Nov-15 06:30N 42°23' W 071°03'0 0.0
2017-Nov-15 06:00N 42°23' W 071°03'0 0.0
2017-Nov-15 05:30N 42°23' W 071°03'0 0.0
2017-Nov-15 04:59N 42°23' W 071°03'0 0.0
2017-Nov-15 04:30N 42°23' W 071°03'0 0.0
2017-Nov-15 03:52N 42°23' W 071°03'0 0.0
2017-Nov-15 03:29N 42°23' W 071°03'0 0.0
2017-Nov-15 02:56N 42°23' W 071°03'0 0.8
2017-Nov-15 02:30N 42°22' W 071°03'2 4.5
2017-Nov-15 01:59N 42°21' W 071°01'1 1.4
2017-Nov-15 01:30N 42°21' W 071°02'2 4.4
2017-Nov-15 01:00N 42°23' W 071°03'0 0.9
2017-Nov-15 00:30N 42°23' W 071°03'3 5.0
2017-Nov-14 23:59N 42°21' W 071°01'2 4.0
2017-Nov-14 23:26N 42°20' W 070°58'1 1.8
2017-Nov-14 22:58N 42°20' W 070°59'4 7.9
2017-Nov-14 22:29N 42°23' W 071°03'0 0.0
2017-Nov-14 21:59N 42°23' W 071°03'0 0.0
2017-Nov-14 21:26N 42°23' W 071°03'0 0.0
2017-Nov-14 20:54N 42°23' W 071°03'0 0.0
2017-Nov-14 20:29N 42°23' W 071°03'0 0.0
2017-Nov-14 20:00N 42°23' W 071°03'0 0.0
2017-Nov-14 19:14N 42°23' W 071°03'1 3.7
2017-Nov-14 18:59N 42°23' W 071°04'3 7.0
2017-Nov-14 18:30N 42°21' W 071°01'5 9.0
2017-Nov-14 18:00N 42°21' W 070°55'510.1
2017-Nov-14 17:30N 42°24' W 070°49'1 3.0
2017-Nov-14 17:00N 42°25' W 070°47'0 0.3
2017-Nov-14 16:30N 42°25' W 070°47'0 0.3
2017-Nov-14 16:00N 42°25' W 070°47'0 0.2
2017-Nov-14 15:30N 42°25' W 070°47'0 0.2
2017-Nov-14 15:00N 42°25' W 070°47'4 7.3
2017-Nov-14 14:30N 42°23' W 070°52'5 9.4
2017-Nov-14 14:00N 42°20' W 070°57'5 9.2
2017-Nov-14 13:30N 42°22' W 071°03'1 1.6
2017-Nov-14 13:00N 42°23' W 071°03'2 4.8
2017-Nov-14 12:30N 42°21' W 071°01'1 1.6
2017-Nov-14 11:58N 42°20' W 071°00'1 1.0
2017-Nov-14 11:29N 42°21' W 071°01'3 4.8
2017-Nov-14 10:57N 42°23' W 071°03'0 0.0
2017-Nov-14 10:28N 42°23' W 071°03'0 0.0
2017-Nov-14 10:00N 42°23' W 071°03'0 0.0
2017-Nov-14 09:28N 42°23' W 071°03'0 0.0
2017-Nov-14 09:00N 42°23' W 071°03'0 0.0
2017-Nov-14 08:30N 42°23' W 071°03'0 0.0
2017-Nov-14 05:51N 42°23' W 071°03'0 0.0
2017-Nov-14 04:51N 42°23' W 071°03'0 0.0
2017-Nov-14 04:26N 42°23' W 071°03'0 0.0
2017-Nov-14 03:50N 42°23' W 071°03'0 0.0
2017-Nov-14 03:30N 42°23' W 071°03'0 0.0
2017-Nov-14 02:25N 42°23' W 071°03'0 0.0
2017-Nov-14 01:40N 42°23' W 071°03'0 0.0
2017-Nov-14 01:30N 42°23' W 071°03'0 0.0
2017-Nov-14 00:59N 42°23' W 071°03'2 4.7
2017-Nov-14 00:27N 42°21' W 071°01'0 0.8
2017-Nov-13 23:57N 42°21' W 071°01'2 3.7
2017-Nov-13 23:30N 42°22' W 071°03'1 0.0
2017-Nov-12 17:50N 42°23' W 071°03'0 0.0
2017-Nov-12 13:10N 42°23' W 071°03'0 0.0
2017-Nov-12 12:40N 42°23' W 071°03'0 0.1
2017-Nov-12 12:27N 42°23' W 071°03'0 0.0
2017-Nov-12 11:59N 42°23' W 071°03'0 0.0
2017-Nov-12 11:28N 42°23' W 071°03'0 0.0
2017-Nov-12 10:11N 42°23' W 071°03'0 0.0
2017-Nov-12 09:53N 42°23' W 071°03'0 0.0
2017-Nov-12 08:40N 42°23' W 071°03'0 0.0
2017-Nov-12 07:23N 42°23' W 071°03'0 0.0
2017-Nov-12 06:26N 42°23' W 071°03'0 0.0
2017-Nov-12 05:58N 42°23' W 071°03'0 0.0
2017-Nov-12 05:30N 42°23' W 071°03'0 0.0
2017-Nov-12 04:59N 42°23' W 071°03'0 0.0
2017-Nov-12 04:30N 42°23' W 071°03'0 0.0
2017-Nov-12 03:59N 42°23' W 071°03'0 0.0
2017-Nov-12 03:30N 42°23' W 071°03'0 0.0
2017-Nov-12 02:58N 42°23' W 071°03'0 0.0
2017-Nov-12 02:26N 42°23' W 071°03'0 0.0
2017-Nov-12 02:00N 42°23' W 071°03'0 0.0
2017-Nov-12 01:30N 42°23' W 071°03'0 0.0
2017-Nov-12 00:58N 42°23' W 071°03'0 0.0
2017-Nov-12 00:30N 42°23' W 071°03'0 0.0
2017-Nov-11 23:56N 42°23' W 071°03'0 0.0
2017-Nov-11 23:21N 42°23' W 071°03'0 0.0
2017-Nov-11 22:58N 42°23' W 071°03'0 0.0
2017-Nov-11 22:18N 42°23' W 071°03'2 6.1
2017-Nov-11 22:00N 42°21' W 071°02'1 1.3
2017-Nov-11 21:26N 42°21' W 071°01'1 2.1
2017-Nov-11 20:59N 42°21' W 071°02'2 3.3
2017-Nov-11 20:30N 42°23' W 071°03'0 0.0
2017-Nov-11 19:58N 42°23' W 071°03'0 0.0
2017-Nov-11 19:17N 42°23' W 071°03'0 0.0
2017-Nov-11 18:59N 42°23' W 071°03'0 0.0
2017-Nov-11 18:30N 42°23' W 071°03'0 0.0
2017-Nov-11 18:00N 42°23' W 071°03'0 0.0
2017-Nov-11 16:41N 42°23' W 071°03'0 2.7
2017-Nov-11 16:30N 42°23' W 071°03'0 0.7
2017-Nov-11 16:00N 42°23' W 071°04'1 1.4
2017-Nov-11 15:31N 42°23' W 071°03'0 0.0
2017-Nov-11 12:34N 42°23' W 071°03'0 5.4
2017-Nov-11 12:30N 42°23' W 071°02'1 2.7
2017-Nov-11 12:00N 42°24' W 071°01'1 1.9
2017-Nov-11 11:29N 42°23' W 071°02'1 2.8
2017-Nov-11 11:00N 42°22' W 071°03'2 3.4
2017-Nov-11 10:30N 42°21' W 071°01'2 3.1
2017-Nov-11 09:59N 42°20' W 070°59'0 0.4
2017-Nov-11 09:29N 42°20' W 070°59'4 7.7
2017-Nov-11 09:00N 42°22' W 071°03'2 4.3
2017-Nov-11 08:30N 42°24' W 071°01'0 0.4
2017-Nov-11 08:00N 42°24' W 071°01'2 3.3
2017-Nov-11 07:30N 42°23' W 071°03'1 1.5
2017-Nov-11 07:00N 42°22' W 071°03'1 1.6
2017-Nov-11 06:30N 42°23' W 071°03'0 0.0
2017-Nov-11 06:00N 42°23' W 071°03'0 0.0
2017-Nov-11 05:30N 42°23' W 071°03'0 0.0
2017-Nov-11 05:00N 42°23' W 071°03'0 0.0
2017-Nov-11 04:30N 42°23' W 071°03'0 0.0
2017-Nov-11 04:00N 42°23' W 071°03'0 0.0
2017-Nov-11 03:30N 42°23' W 071°03'0 0.0
2017-Nov-11 03:00N 42°23' W 071°03'0 0.0
2017-Nov-11 02:30N 42°23' W 071°03'0 0.0
2017-Nov-11 02:00N 42°23' W 071°03'0 0.0
2017-Nov-11 01:30N 42°23' W 071°03'0 0.0
2017-Nov-11 01:00N 42°23' W 071°03'0 0.0
2017-Nov-11 00:30N 42°23' W 071°03'1 0.4
2017-Nov-10 22:48N 42°22' W 071°03'1 2.5
2017-Nov-10 22:30N 42°23' W 071°03'0 0.9
2017-Nov-10 21:59N 42°23' W 071°02'0 0.0
2017-Nov-10 21:30N 42°23' W 071°02'0 0.2
2017-Nov-10 20:59N 42°23' W 071°02'1 1.5
2017-Nov-10 20:30N 42°23' W 071°03'1 2.1
2017-Nov-10 20:00N 42°22' W 071°02'2 4.0
2017-Nov-10 19:30N 42°23' W 071°04'0 0.0
2017-Nov-10 19:00N 42°23' W 071°04'1 1.8
2017-Nov-10 18:30N 42°23' W 071°03'1 2.7
2017-Nov-10 17:59N 42°21' W 071°02'2 3.3
2017-Nov-10 17:30N 42°23' W 071°03'0 0.0
2017-Nov-10 13:02N 42°23' W 071°03'0 0.0
2017-Nov-10 12:42N 42°23' W 071°03'0 0.0
2017-Nov-10 12:28N 42°23' W 071°03'0 0.0
2017-Nov-10 11:59N 42°23' W 071°03'0 0.0
2017-Nov-10 08:54N 42°23' W 071°03'0 0.0
2017-Nov-10 07:41N 42°23' W 071°03'0 0.0
2017-Nov-10 07:30N 42°23' W 071°03'0 0.0
2017-Nov-10 06:52N 42°23' W 071°03'0 0.0
2017-Nov-10 06:29N 42°23' W 071°03'0 0.0
2017-Nov-10 05:57N 42°23' W 071°03'0 0.0
2017-Nov-10 05:30N 42°23' W 071°03'0 0.0
2017-Nov-10 04:46N 42°23' W 071°03'0 0.0
2017-Nov-10 04:24N 42°23' W 071°03'0 0.0
2017-Nov-10 03:08N 42°23' W 071°03'  
Track history (hours):
 
Tides and Currents Weather Stations Pressure Air Temp Water Temp Dewpoint Dewpoint Depression Visibility Wind Speed Wind Dir Waves Ship Positions

Liberty

Owner: Boston Towing & Transportation, Boston, MA. More information available from US FCC via Universal Licensing System and Coast Guard Vessel Documentation Center.

Last reported at 2017-Nov-20 00:29 UTC. Time now 2017-Nov-21 23:14 UTC.
Position N 42°23' W 071°03'.

Length 28 m; draft 4.1 m.

Type: Tug. MMSI: 367513040.

Date/timePositionNaut miles runAvg speedWind from/ knotsBaromVisibWave heightAir tempDewpointWater temp
2017-Nov-20 00:29N 42°23' W 071°03'0 0.0
2017-Nov-19 23:59N 42°23' W 071°03'0 0.0
2017-Nov-19 23:28N 42°23' W 071°03'0 0.0
2017-Nov-19 22:59N 42°23' W 071°03'0 0.0
2017-Nov-19 22:29N 42°23' W 071°03'0 0.0
2017-Nov-19 21:59N 42°23' W 071°03'0 0.0
2017-Nov-19 21:27N 42°23' W 071°03'0 0.0
2017-Nov-19 20:58N 42°23' W 071°03'0 0.0
2017-Nov-19 19:55N 42°23' W 071°03'0 0.0
2017-Nov-19 19:30N 42°23' W 071°03'0 0.0
2017-Nov-19 19:00N 42°23' W 071°03'0 0.0
2017-Nov-19 18:22N 42°23' W 071°03'0 0.0
2017-Nov-19 16:58N 42°23' W 071°03'2 5.4
2017-Nov-19 16:30N 42°21' W 071°01'1 1.8
2017-Nov-19 15:58N 42°20' W 070°60'0 1.0
2017-Nov-19 15:30N 42°20' W 071°00'3 5.8
2017-Nov-19 15:00N 42°23' W 071°03'0 0.0
2017-Nov-19 14:30N 42°23' W 071°03'0 0.0
2017-Nov-19 14:00N 42°23' W 071°03'0 0.0
2017-Nov-19 13:30N 42°23' W 071°03'0 0.0
2017-Nov-19 13:00N 42°23' W 071°03'1 2.5
2017-Nov-19 12:30N 42°23' W 071°01'0 0.4
2017-Nov-19 11:56N 42°24' W 071°01'1 3.1
2017-Nov-19 11:30N 42°23' W 071°03'2 3.6
2017-Nov-19 11:00N 42°21' W 071°02'1 2.6
2017-Nov-19 10:30N 42°23' W 071°03'0 0.6
2017-Nov-19 10:00N 42°23' W 071°03'0 0.0
2017-Nov-19 09:30N 42°23' W 071°03'0 0.0
2017-Nov-19 08:59N 42°23' W 071°03'0 0.0
2017-Nov-19 08:30N 42°23' W 071°03'0 0.0
2017-Nov-19 07:59N 42°23' W 071°03'0 0.0
2017-Nov-19 07:27N 42°23' W 071°03'0 0.0
2017-Nov-19 06:58N 42°23' W 071°03'0 0.0
2017-Nov-19 06:27N 42°23' W 071°03'0 0.0
2017-Nov-19 06:00N 42°23' W 071°03'0 0.0
2017-Nov-19 05:28N 42°23' W 071°03'0 0.0
2017-Nov-19 04:31N 42°23' W 071°03'0 0.2
2017-Nov-19 04:29N 42°23' W 071°03'0 0.0
2017-Nov-19 03:56N 42°23' W 071°03'0 0.0
2017-Nov-19 03:30N 42°23' W 071°03'3 5.3
2017-Nov-19 03:00N 42°21' W 071°01'0 0.6
2017-Nov-19 02:30N 42°21' W 071°01'2 1.7
2017-Nov-19 01:02N 42°23' W 071°03'0 0.0
2017-Nov-19 00:54N 42°23' W 071°03'0 0.0
2017-Nov-19 00:27N 42°23' W 071°03'0 0.0
2017-Nov-18 23:52N 42°23' W 071°03'0 0.0
2017-Nov-18 23:30N 42°23' W 071°03'0 0.0
2017-Nov-18 21:25N 42°23' W 071°03'0 0.0
2017-Nov-18 21:00N 42°23' W 071°03'0 0.0
2017-Nov-18 20:29N 42°23' W 071°03'0 0.0
2017-Nov-18 20:00N 42°23' W 071°03'0 0.0
2017-Nov-18 19:28N 42°23' W 071°03'0 0.0
2017-Nov-18 19:00N 42°23' W 071°03'0 0.0
2017-Nov-18 18:30N 42°23' W 071°03'0 0.0
2017-Nov-18 18:00N 42°23' W 071°03'0 0.0
2017-Nov-18 17:30N 42°23' W 071°03'0 0.0
2017-Nov-18 16:52N 42°23' W 071°03'0 0.0
2017-Nov-18 16:30N 42°23' W 071°03'0 0.0
2017-Nov-18 15:59N 42°23' W 071°03'2 5.1
2017-Nov-18 15:30N 42°21' W 071°01'0 0.6
2017-Nov-18 15:00N 42°21' W 071°01'2 4.0
2017-Nov-18 14:30N 42°20' W 070°58'2 4.9
2017-Nov-18 14:00N 42°21' W 071°01'2 4.8
2017-Nov-18 13:30N 42°23' W 071°03'1 1.1
2017-Nov-18 13:00N 42°23' W 071°02'0 0.7
2017-Nov-18 12:30N 42°23' W 071°03'2 3.8
2017-Nov-18 12:00N 42°21' W 071°02'1 2.7
2017-Nov-18 11:30N 42°22' W 071°03'1 1.0
2017-Nov-18 11:00N 42°23' W 071°03'0 0.0
2017-Nov-18 10:30N 42°23' W 071°03'0 0.0
2017-Nov-18 10:00N 42°23' W 071°03'0 0.0
2017-Nov-18 09:30N 42°23' W 071°03'0 0.0
2017-Nov-18 09:00N 42°23' W 071°03'0 0.0
2017-Nov-18 08:30N 42°23' W 071°03'0 0.0
2017-Nov-18 08:00N 42°23' W 071°03'0 0.0
2017-Nov-18 07:30N 42°23' W 071°03'0 0.0
2017-Nov-18 07:00N 42°23' W 071°03'0 0.0
2017-Nov-18 06:30N 42°23' W 071°03'0 0.0
2017-Nov-18 06:00N 42°23' W 071°03'0 0.0
2017-Nov-18 05:30N 42°23' W 071°03'0 0.0
2017-Nov-18 05:00N 42°23' W 071°03'0 0.0
2017-Nov-18 04:30N 42°23' W 071°03'0 0.0
2017-Nov-18 04:00N 42°23' W 071°03'0 0.0
2017-Nov-18 03:30N 42°23' W 071°03'0 0.0
2017-Nov-18 03:00N 42°23' W 071°03'0 0.0
2017-Nov-18 02:30N 42°23' W 071°03'0 0.0
2017-Nov-18 02:00N 42°23' W 071°03'0 0.0
2017-Nov-18 01:30N 42°23' W 071°03'0 0.0
2017-Nov-18 01:00N 42°23' W 071°03'0 0.0
2017-Nov-18 00:30N 42°23' W 071°03'0 0.0
2017-Nov-18 00:00N 42°23' W 071°03'0 0.0
2017-Nov-17 23:30N 42°23' W 071°03'0 0.0
2017-Nov-17 23:00N 42°23' W 071°03'0 0.0
2017-Nov-17 22:30N 42°23' W 071°03'0 0.0
2017-Nov-17 22:00N 42°23' W 071°03'0 0.0
2017-Nov-17 21:30N 42°23' W 071°03'2 3.4
2017-Nov-17 21:00N 42°24' W 071°01'1 1.8
2017-Nov-17 20:30N 42°23' W 071°01'2 3.2
2017-Nov-17 20:01N 42°22' W 071°03'2 2.8
2017-Nov-17 19:29N 42°23' W 071°02'1 0.9
2017-Nov-17 18:45N 42°24' W 071°01'0 1.1
2017-Nov-17 18:28N 42°24' W 071°01'0 0.1
2017-Nov-17 18:00N 42°24' W 071°01'2 3.4
2017-Nov-17 17:30N 42°23' W 071°03'0 0.0
2017-Nov-17 10:36N 42°23' W 071°03'0 0.1
2017-Nov-17 10:30N 42°23' W 071°03'0 0.0
2017-Nov-17 10:00N 42°23' W 071°03'0 0.0
2017-Nov-17 09:24N 42°23' W 071°03'0 0.0
2017-Nov-17 08:52N 42°23' W 071°03'0 0.0
2017-Nov-17 08:29N 42°23' W 071°03'0 0.0
2017-Nov-17 08:00N 42°23' W 071°03'0 0.0
2017-Nov-17 07:17N 42°23' W 071°03'0 0.0
2017-Nov-17 06:52N 42°23' W 071°03'0 0.0
2017-Nov-17 06:22N 42°23' W 071°03'0 0.0
2017-Nov-17 05:46N 42°23' W 071°03'0 0.0
2017-Nov-17 05:29N 42°23' W 071°03'0 0.0
2017-Nov-17 04:56N 42°23' W 071°03'0 0.0
2017-Nov-17 04:12N 42°23' W 071°03'0 0.0
2017-Nov-17 03:59N 42°23' W 071°03'0 0.0
2017-Nov-17 03:27N 42°23' W 071°03'0 0.0
2017-Nov-17 02:59N 42°23' W 071°03'0 0.0
2017-Nov-17 02:26N 42°23' W 071°03'0 0.0
2017-Nov-17 02:00N 42°23' W 071°03'0 0.0
2017-Nov-17 01:20N 42°23' W 071°03'0 0.0
2017-Nov-17 00:59N 42°23' W 071°03'0 0.0
2017-Nov-17 00:27N 42°23' W 071°03'0 0.0
2017-Nov-17 00:00N 42°23' W 071°03'0 0.0
2017-Nov-16 23:28N 42°23' W 071°03'0 0.0
2017-Nov-16 21:48N 42°23' W 071°03'0 0.0
2017-Nov-16 21:28N 42°23' W 071°03'0 0.0
2017-Nov-16 20:55N 42°23' W 071°03'0 0.0
2017-Nov-16 20:30N 42°23' W 071°03'0 0.0
2017-Nov-16 19:57N 42°23' W 071°03'0 0.0
2017-Nov-16 19:27N 42°23' W 071°03'0 0.0
2017-Nov-16 18:54N 42°23' W 071°03'0 0.0
2017-Nov-16 18:11N 42°23' W 071°03'0 0.0
2017-Nov-16 17:54N 42°23' W 071°03'0 0.0
2017-Nov-16 17:30N 42°23' W 071°03'0 0.0
2017-Nov-16 16:55N 42°23' W 071°03'0 0.0
2017-Nov-16 16:29N 42°23' W 071°03'0 0.0
2017-Nov-16 16:00N 42°23' W 071°03'0 0.0
2017-Nov-16 15:24N 42°23' W 071°03'0 0.0
2017-Nov-16 14:54N 42°23' W 071°03'0 0.0
2017-Nov-16 14:11N 42°23' W 071°03'0 0.2
2017-Nov-16 14:01N 42°23' W 071°03'0 0.0
2017-Nov-16 13:30N 42°23' W 071°03'0 0.0
2017-Nov-16 13:00N 42°23' W 071°03'0 0.0
2017-Nov-16 12:30N 42°23' W 071°03'0 0.0
2017-Nov-16 12:00N 42°23' W 071°03'0 0.0
2017-Nov-16 11:30N 42°23' W 071°03'0 0.0
2017-Nov-16 11:00N 42°23' W 071°03'0 0.0
2017-Nov-16 10:30N 42°23' W 071°03'0 0.0
2017-Nov-16 10:00N 42°23' W 071°03'0 0.0
2017-Nov-16 09:30N 42°23' W 071°03'0 0.0
2017-Nov-16 09:01N 42°23' W 071°03'0 0.5
2017-Nov-16 08:30N 42°23' W 071°03'1 1.8
2017-Nov-16 08:00N 42°23' W 071°04'0 0.0
2017-Nov-16 07:30N 42°23' W 071°04'0 0.0
2017-Nov-16 07:00N 42°23' W 071°04'1 1.9
2017-Nov-16 06:30N 42°23' W 071°03'0 0.0
2017-Nov-16 06:00N 42°23' W 071°03'0 0.0
2017-Nov-16 05:30N 42°23' W 071°03'0 0.0
2017-Nov-16 05:00N 42°23' W 071°03'0 0.7
2017-Nov-16 04:30N 42°23' W 071°02'1 1.5
2017-Nov-16 04:00N 42°23' W 071°01'1 1.7
2017-Nov-16 03:28N 42°23' W 071°03'0 0.0
2017-Nov-16 02:59N 42°23' W 071°03'0 0.0
2017-Nov-16 01:59N 42°23' W 071°03'0 0.0
2017-Nov-16 01:30N 42°23' W 071°03'0 0.0
2017-Nov-16 00:58N 42°23' W 071°03'0 0.0
2017-Nov-16 00:30N 42°23' W 071°03'0 0.0
2017-Nov-16 00:00N 42°23' W 071°03'0 0.0
2017-Nov-15 23:30N 42°23' W 071°03'0 0.0
2017-Nov-15 23:00N 42°23' W 071°03'0 0.0
2017-Nov-15 22:23N 42°23' W 071°03'0 0.0
2017-Nov-15 21:58N 42°23' W 071°03'0 0.0
2017-Nov-15 21:29N 42°23' W 071°03'0 0.0
2017-Nov-15 21:00N 42°23' W 071°03'0 0.0
2017-Nov-15 20:30N 42°23' W 071°03'1 2.4
2017-Nov-15 19:57N 42°24' W 071°01'0 0.7
2017-Nov-15 19:30N 42°23' W 071°01'2 3.2
2017-Nov-15 19:00N 42°22' W 071°03'1 1.1
2017-Nov-15 18:26N 42°23' W 071°03'0 0.0
2017-Nov-15 18:00N 42°23' W 071°03'0 0.0
2017-Nov-15 17:28N 42°23' W 071°03'0 0.0
2017-Nov-15 16:59N 42°23' W 071°03'0 0.0
2017-Nov-15 16:25N 42°23' W 071°03'0 0.0
2017-Nov-15 15:55N 42°23' W 071°03'1 1.4
2017-Nov-15 15:26N 42°23' W 071°02'0 0.2
2017-Nov-15 14:52N 42°23' W 071°02'1 1.6
2017-Nov-15 14:26N 42°23' W 071°02'2 3.5
2017-Nov-15 14:00N 42°22' W 071°03'2 3.2
2017-Nov-15 13:30N 42°23' W 071°02'1 2.1
2017-Nov-15 13:00N 42°24' W 071°01'1 1.5
2017-Nov-15 12:28N 42°23' W 071°01'0 0.7
2017-Nov-15 12:00N 42°23' W 071°02'1 1.5
2017-Nov-15 11:31N 42°24' W 071°01'1 2.6
2017-Nov-15 11:00N 42°23' W 071°03'0 0.0
2017-Nov-15 10:30N 42°23' W 071°03'0 0.0
2017-Nov-15 09:50N 42°23' W 071°03'0 0.0
2017-Nov-15 09:24N 42°23' W 071°03'0 0.0
2017-Nov-15 08:17N 42°23' W 071°03'0 0.0
2017-Nov-15 07:20N 42°23' W 071°03'0 0.0
2017-Nov-15 06:56N 42°23' W 071°03'0 0.0
2017-Nov-15 06:30N 42°23' W 071°03'0 0.0
2017-Nov-15 06:00N 42°23' W 071°03'0 0.0
2017-Nov-15 05:30N 42°23' W 071°03'0 0.0
2017-Nov-15 04:59N 42°23' W 071°03'0 0.0
2017-Nov-15 04:30N 42°23' W 071°03'0 0.0
2017-Nov-15 03:52N 42°23' W 071°03'0 0.0
2017-Nov-15 03:29N 42°23' W 071°03'0 0.0
2017-Nov-15 02:56N 42°23' W 071°03'0 0.8
2017-Nov-15 02:30N 42°22' W 071°03'2 4.5
2017-Nov-15 01:59N 42°21' W 071°01'1 1.4
2017-Nov-15 01:30N 42°21' W 071°02'2 4.4
2017-Nov-15 01:00N 42°23' W 071°03'0 0.9
2017-Nov-15 00:30N 42°23' W 071°03'3 5.0
2017-Nov-14 23:59N 42°21' W 071°01'2 4.0
2017-Nov-14 23:26N 42°20' W 070°58'1 1.8
2017-Nov-14 22:58N 42°20' W 070°59'4 7.9
2017-Nov-14 22:29N 42°23' W 071°03'0 0.0
2017-Nov-14 21:59N 42°23' W 071°03'0 0.0
2017-Nov-14 21:26N 42°23' W 071°03'0 0.0
2017-Nov-14 20:54N 42°23' W 071°03'0 0.0
2017-Nov-14 20:29N 42°23' W 071°03'0 0.0
2017-Nov-14 20:00N 42°23' W 071°03'0 0.0
2017-Nov-14 19:14N 42°23' W 071°03'1 3.7
2017-Nov-14 18:59N 42°23' W 071°04'3 7.0
2017-Nov-14 18:30N 42°21' W 071°01'5 9.0
2017-Nov-14 18:00N 42°21' W 070°55'510.1
2017-Nov-14 17:30N 42°24' W 070°49'1 3.0
2017-Nov-14 17:00N 42°25' W 070°47'0 0.3
2017-Nov-14 16:30N 42°25' W 070°47'0 0.3
2017-Nov-14 16:00N 42°25' W 070°47'0 0.2
2017-Nov-14 15:30N 42°25' W 070°47'0 0.2
2017-Nov-14 15:00N 42°25' W 070°47'4 7.3
2017-Nov-14 14:30N 42°23' W 070°52'5 9.4
2017-Nov-14 14:00N 42°20' W 070°57'5 9.2
2017-Nov-14 13:30N 42°22' W 071°03'1 1.6
2017-Nov-14 13:00N 42°23' W 071°03'2 4.8
2017-Nov-14 12:30N 42°21' W 071°01'1 1.6
2017-Nov-14 11:58N 42°20' W 071°00'1 1.0
2017-Nov-14 11:29N 42°21' W 071°01'3 4.8
2017-Nov-14 10:57N 42°23' W 071°03'0 0.0
2017-Nov-14 10:28N 42°23' W 071°03'0 0.0
2017-Nov-14 10:00N 42°23' W 071°03'0 0.0
2017-Nov-14 09:28N 42°23' W 071°03'0 0.0
2017-Nov-14 09:00N 42°23' W 071°03'0 0.0
2017-Nov-14 08:30N 42°23' W 071°03'0 0.0
2017-Nov-14 05:51N 42°23' W 071°03'0 0.0
2017-Nov-14 04:51N 42°23' W 071°03'0 0.0
2017-Nov-14 04:26N 42°23' W 071°03'0 0.0
2017-Nov-14 03:50N 42°23' W 071°03'0 0.0
2017-Nov-14 03:30N 42°23' W 071°03'0 0.0
2017-Nov-14 02:25N 42°23' W 071°03'0 0.0
2017-Nov-14 01:40N 42°23' W 071°03'0 0.0
2017-Nov-14 01:30N 42°23' W 071°03'0 0.0
2017-Nov-14 00:59N 42°23' W 071°03'2 4.7
2017-Nov-14 00:27N 42°21' W 071°01'0 0.8
2017-Nov-13 23:57N 42°21' W 071°01'2 3.7
2017-Nov-13 23:30N 42°22' W 071°03'1 0.0
2017-Nov-12 17:50N 42°23' W 071°03'0 0.0
2017-Nov-12 13:10N 42°23' W 071°03'0 0.0
2017-Nov-12 12:40N 42°23' W 071°03'0 0.1
2017-Nov-12 12:27N 42°23' W 071°03'0 0.0
2017-Nov-12 11:59N 42°23' W 071°03'0 0.0
2017-Nov-12 11:28N 42°23' W 071°03'0 0.0
2017-Nov-12 10:11N 42°23' W 071°03'0 0.0
2017-Nov-12 09:53N 42°23' W 071°03'0 0.0
2017-Nov-12 08:40N 42°23' W 071°03'0 0.0
2017-Nov-12 07:23N 42°23' W 071°03'0 0.0
2017-Nov-12 06:26N 42°23' W 071°03'0 0.0
2017-Nov-12 05:58N 42°23' W 071°03'0 0.0
2017-Nov-12 05:30N 42°23' W 071°03'0 0.0
2017-Nov-12 04:59N 42°23' W 071°03'0 0.0
2017-Nov-12 04:30N 42°23' W 071°03'0 0.0
2017-Nov-12 03:59N 42°23' W 071°03'0 0.0
2017-Nov-12 03:30N 42°23' W 071°03'0 0.0
2017-Nov-12 02:58N 42°23' W 071°03'0 0.0
2017-Nov-12 02:26N 42°23' W 071°03'0 0.0
2017-Nov-12 02:00N 42°23' W 071°03'0 0.0
2017-Nov-12 01:30N 42°23' W 071°03'0 0.0
2017-Nov-12 00:58N 42°23' W 071°03'0 0.0
2017-Nov-12 00:30N 42°23' W 071°03'0 0.0
2017-Nov-11 23:56N 42°23' W 071°03'0 0.0
2017-Nov-11 23:21N 42°23' W 071°03'0 0.0
2017-Nov-11 22:58N 42°23' W 071°03'0 0.0
2017-Nov-11 22:18N 42°23' W 071°03'2 6.1
2017-Nov-11 22:00N 42°21' W 071°02'1 1.3
2017-Nov-11 21:26N 42°21' W 071°01'1 2.1
2017-Nov-11 20:59N 42°21' W 071°02'2 3.3
2017-Nov-11 20:30N 42°23' W 071°03'0 0.0
2017-Nov-11 19:58N 42°23' W 071°03'0 0.0
2017-Nov-11 19:17N 42°23' W 071°03'0 0.0
2017-Nov-11 18:59N 42°23' W 071°03'0 0.0
2017-Nov-11 18:30N 42°23' W 071°03'0 0.0
2017-Nov-11 18:00N 42°23' W 071°03'0 0.0
2017-Nov-11 16:41N 42°23' W 071°03'0 2.7
2017-Nov-11 16:30N 42°23' W 071°03'0 0.7
2017-Nov-11 16:00N 42°23' W 071°04'1 1.4
2017-Nov-11 15:31N 42°23' W 071°03'0 0.0
2017-Nov-11 12:34N 42°23' W 071°03'0 5.4
2017-Nov-11 12:30N 42°23' W 071°02'1 2.7
2017-Nov-11 12:00N 42°24' W 071°01'1 1.9
2017-Nov-11 11:29N 42°23' W 071°02'1 2.8
2017-Nov-11 11:00N 42°22' W 071°03'2 3.4
2017-Nov-11 10:30N 42°21' W 071°01'2 3.1
2017-Nov-11 09:59N 42°20' W 070°59'0 0.4
2017-Nov-11 09:29N 42°20' W 070°59'4 7.7
2017-Nov-11 09:00N 42°22' W 071°03'2 4.3
2017-Nov-11 08:30N 42°24' W 071°01'0 0.4
2017-Nov-11 08:00N 42°24' W 071°01'2 3.3
2017-Nov-11 07:30N 42°23' W 071°03'1 1.5
2017-Nov-11 07:00N 42°22' W 071°03'1 1.6
2017-Nov-11 06:30N 42°23' W 071°03'0 0.0
2017-Nov-11 06:00N 42°23' W 071°03'0 0.0
2017-Nov-11 05:30N 42°23' W 071°03'0 0.0
2017-Nov-11 05:00N 42°23' W 071°03'0 0.0
2017-Nov-11 04:30N 42°23' W 071°03'0 0.0
2017-Nov-11 04:00N 42°23' W 071°03'0 0.0
2017-Nov-11 03:30N 42°23' W 071°03'0 0.0
2017-Nov-11 03:00N 42°23' W 071°03'0 0.0
2017-Nov-11 02:30N 42°23' W 071°03'0 0.0
2017-Nov-11 02:00N 42°23' W 071°03'0 0.0
2017-Nov-11 01:30N 42°23' W 071°03'0 0.0
2017-Nov-11 01:00N 42°23' W 071°03'0 0.0
2017-Nov-11 00:30N 42°23' W 071°03'1 0.4
2017-Nov-10 22:48N 42°22' W 071°03'1 2.5
2017-Nov-10 22:30N 42°23' W 071°03'0 0.9
2017-Nov-10 21:59N 42°23' W 071°02'0 0.0
2017-Nov-10 21:30N 42°23' W 071°02'0 0.2
2017-Nov-10 20:59N 42°23' W 071°02'1 1.5
2017-Nov-10 20:30N 42°23' W 071°03'1 2.1
2017-Nov-10 20:00N 42°22' W 071°02'2 4.0
2017-Nov-10 19:30N 42°23' W 071°04'0 0.0
2017-Nov-10 19:00N 42°23' W 071°04'1 1.8
2017-Nov-10 18:30N 42°23' W 071°03'1 2.7
2017-Nov-10 17:59N 42°21' W 071°02'2 3.3
2017-Nov-10 17:30N 42°23' W 071°03'0 0.0
2017-Nov-10 13:02N 42°23' W 071°03'0 0.0
2017-Nov-10 12:42N 42°23' W 071°03'0 0.0
2017-Nov-10 12:28N 42°23' W 071°03'0 0.0
2017-Nov-10 11:59N 42°23' W 071°03'0 0.0
2017-Nov-10 08:54N 42°23' W 071°03'0 0.0
2017-Nov-10 07:41N 42°23' W 071°03'0 0.0
2017-Nov-10 07:30N 42°23' W 071°03'0 0.0
2017-Nov-10 06:52N 42°23' W 071°03'0 0.0
2017-Nov-10 06:29N 42°23' W 071°03'0 0.0
2017-Nov-10 05:57N 42°23' W 071°03'0 0.0
2017-Nov-10 05:30N 42°23' W 071°03'0 0.0
2017-Nov-10 04:46N 42°23' W 071°03'0 0.0
2017-Nov-10 04:24N 42°23' W 071°03'0 0.0
2017-Nov-10 03:08N 42°23' W 071°03'  

Dump ship's entire track history